Time;durP1;ratioP1;P1;durP2;ratioP2;P2;SDS_P1;SDS_P2;PMS_P1;PMS_P2;Temp;Humidity;BMP_temperature;BMP_pressure;BME280_temperature;BME280_humidity;BME280_pressure;Samples;Min_cycle;Max_cycle;Signal;HPM_P1;HPM_P2
2022/07/11 00:02:12;;;;;;;3.47;3.17;;;17.90;48.80;;;;;;5102318;28;20455;-77
2022/07/11 00:04:42;;;;;;;4.30;3.87;;;17.90;48.80;;;;;;5117427;28;20421;-77
2022/07/11 00:07:09;;;;;;;3.40;3.10;;;18.00;48.50;;;;;;5115243;28;20446;-78
2022/07/11 00:09:36;;;;;;;3.70;3.50;;;18.00;48.60;;;;;;5114247;28;20449;-77
2022/07/11 00:12:04;;;;;;;3.80;3.47;;;17.90;48.60;;;;;;5114679;28;20557;-77
2022/07/11 00:14:31;;;;;;;3.50;3.17;;;18.00;48.60;;;;;;5116219;28;20442;-77
2022/07/11 00:16:58;;;;;;;3.30;3.00;;;18.00;48.40;;;;;;5120387;28;20523;-77
2022/07/11 00:19:25;;;;;;;5.20;2.57;;;18.00;48.30;;;;;;5134979;28;20425;-77
2022/07/11 00:21:54;;;;;;;3.27;3.07;;;18.10;48.40;;;;;;5133880;28;20541;-77
2022/07/11 00:24:21;;;;;;;3.57;3.10;;;18.00;48.70;;;;;;5120298;28;20957;-78
2022/07/11 00:26:49;;;;;;;3.20;3.00;;;18.00;48.80;;;;;;5118890;28;20398;-77
2022/07/11 00:29:16;;;;;;;3.30;3.00;;;18.00;48.70;;;;;;5118678;28;20450;-77
2022/07/11 00:31:43;;;;;;;2.57;2.43;;;18.00;48.60;;;;;;5117339;28;20462;-76
2022/07/11 00:34:10;;;;;;;5.70;3.40;;;18.00;48.50;;;;;;5118857;28;20434;-77
2022/07/11 00:36:38;;;;;;;3.73;3.20;;;18.10;48.50;;;;;;5119912;28;20482;-76
2022/07/11 00:39:06;;;;;;;3.33;3.00;;;18.10;48.60;;;;;;5124088;28;20435;-77
2022/07/11 00:41:33;;;;;;;3.40;3.00;;;18.20;48.20;;;;;;5125342;28;21232;-77
2022/07/11 00:44:02;;;;;;;3.67;2.77;;;18.20;48.30;;;;;;5121089;28;20492;-77
2022/07/11 00:46:30;;;;;;;3.90;3.20;;;18.20;48.30;;;;;;5127040;28;20438;-77
2022/07/11 00:48:58;;;;;;;3.80;3.50;;;18.30;48.10;;;;;;5132809;28;20485;-76
2022/07/11 00:51:25;;;;;;;3.30;2.80;;;18.30;48.00;;;;;;5118618;28;20447;-77
2022/07/11 00:53:54;;;;;;;3.30;3.10;;;18.30;47.60;;;;;;5121115;28;20877;-78
2022/07/11 00:56:25;;;;;;;3.30;3.10;;;18.30;48.10;;;;;;5114196;28;20482;-76
2022/07/11 00:58:52;;;;;;;3.40;3.10;;;18.20;48.40;;;;;;5115335;28;20424;-77
2022/07/11 01:01:20;;;;;;;3.90;3.17;;;18.20;48.80;;;;;;5121837;28;20580;-77
2022/07/11 01:03:48;;;;;;;3.30;3.00;;;18.10;49.40;;;;;;5121769;28;20562;-78
2022/07/11 01:06:15;;;;;;;4.90;3.87;;;18.10;49.80;;;;;;5121001;28;20431;-74
2022/07/11 01:08:42;;;;;;;3.90;3.50;;;18.10;50.00;;;;;;5112933;28;20429;-75
2022/07/11 01:11:12;;;;;;;4.17;2.77;;;18.10;50.20;;;;;;5119492;27;20496;-76
2022/07/11 01:13:40;;;;;;;3.13;2.90;;;18.10;50.20;;;;;;5119731;28;20874;-75
2022/07/11 01:16:12;;;;;;;3.30;3.10;;;18.20;49.90;;;;;;5118669;28;20470;-76
2022/07/11 01:18:40;;;;;;;3.30;3.00;;;18.20;49.90;;;;;;5107861;28;20418;-76
2022/07/11 01:21:21;;;;;;;4.00;3.43;;;18.20;49.90;;;;;;5106748;28;20470;-76
2022/07/11 01:23:51;;;;;;;3.47;3.17;;;18.20;49.90;;;;;;5105967;28;20455;-76
2022/07/11 01:26:19;;;;;;;3.50;3.30;;;18.30;49.80;;;;;;5103420;28;20538;-76
2022/07/11 01:28:46;;;;;;;3.50;3.17;;;18.20;50.00;;;;;;5120020;28;20465;-75
2022/07/11 01:31:14;;;;;;;3.80;3.50;;;18.10;50.10;;;;;;5128949;28;20470;-77
2022/07/11 01:33:41;;;;;;;3.60;3.30;;;18.10;50.90;;;;;;5126386;28;20496;-76
2022/07/11 01:36:08;;;;;;;3.40;3.20;;;18.10;49.90;;;;;;5128786;28;20436;-77
2022/07/11 01:38:35;;;;;;;3.50;3.20;;;18.10;50.00;;;;;;5128494;28;20501;-77
2022/07/11 01:41:04;;;;;;;3.00;2.80;;;18.10;49.80;;;;;;5125135;28;20425;-76
2022/07/11 01:43:31;;;;;;;3.23;2.97;;;18.10;49.60;;;;;;5124996;28;20466;-77
2022/07/11 01:45:59;;;;;;;3.10;2.90;;;18.10;49.50;;;;;;5124031;28;20438;-78
2022/07/11 01:48:26;;;;;;;3.47;3.17;;;18.00;49.70;;;;;;5123870;28;20449;-78
2022/07/11 01:50:53;;;;;;;3.50;3.20;;;18.10;49.70;;;;;;5121886;28;20417;-76
2022/07/11 01:53:19;;;;;;;3.87;3.57;;;18.00;49.80;;;;;;5121244;28;20428;-77
2022/07/11 01:55:46;;;;;;;4.70;3.40;;;18.10;49.80;;;;;;5119555;28;20546;-77
2022/07/11 01:58:15;;;;;;;3.37;3.17;;;18.00;50.10;;;;;;5119925;28;20863;-77
2022/07/11 02:00:42;;;;;;;3.77;3.30;;;18.00;50.30;;;;;;5119184;28;20421;-76
2022/07/11 02:03:09;;;;;;;3.43;3.13;;;17.90;50.70;;;;;;5122941;28;20482;-76
2022/07/11 02:05:38;;;;;;;5.57;3.33;;;17.90;50.90;;;;;;5125446;28;20450;-76
2022/07/11 02:08:12;;;;;;;5.40;3.40;;;17.90;51.00;;;;;;5124047;28;20432;-75
2022/07/11 02:10:40;;;;;;;3.40;3.13;;;17.80;51.50;;;;;;5122056;28;20462;-75
2022/07/11 02:13:09;;;;;;;3.23;3.03;;;17.70;51.60;;;;;;5117071;28;20462;-73
2022/07/11 02:15:37;;;;;;;3.30;3.10;;;17.70;52.20;;;;;;5116071;28;20920;-78
2022/07/11 02:18:05;;;;;;;5.70;3.40;;;17.70;52.30;;;;;;5115445;28;20488;-76
2022/07/11 02:20:33;;;;;;;5.00;4.10;;;17.70;52.50;;;;;;5116212;28;20511;-74
2022/07/11 02:23:00;;;;;;;3.60;3.37;;;17.60;53.50;;;;;;5115552;28;20527;-74
2022/07/11 02:25:27;;;;;;;5.40;3.13;;;17.60;52.90;;;;;;5115956;28;20446;-75
2022/07/11 02:27:54;;;;;;;3.60;3.30;;;17.60;53.50;;;;;;5115323;28;20421;-74
2022/07/11 02:30:21;;;;;;;4.03;3.63;;;17.60;53.40;;;;;;5115279;28;20461;-74
2022/07/11 02:32:50;;;;;;;3.17;2.97;;;17.60;53.10;;;;;;5114425;28;20938;-73
2022/07/11 02:35:16;;;;;;;3.40;3.00;;;17.60;53.30;;;;;;5115865;28;20460;-74
2022/07/11 02:37:44;;;;;;;3.50;3.20;;;17.60;53.30;;;;;;5098569;28;20482;-74
2022/07/11 02:40:11;;;;;;;3.90;3.50;;;17.60;53.30;;;;;;5115238;28;20938;-74
2022/07/11 02:42:38;;;;;;;5.93;3.40;;;17.60;54.00;;;;;;5115089;28;21035;-77
2022/07/11 02:45:07;;;;;;;3.60;3.40;;;17.50;53.90;;;;;;5115871;28;20465;-76
2022/07/11 02:47:35;;;;;;;3.10;2.90;;;17.50;54.20;;;;;;5115904;28;20553;-76
2022/07/11 02:50:04;;;;;;;3.73;3.43;;;17.40;54.60;;;;;;5117274;28;20458;-74
2022/07/11 02:52:31;;;;;;;3.57;3.20;;;17.40;54.70;;;;;;5117236;28;20546;-76
2022/07/11 02:54:58;;;;;;;3.70;3.40;;;17.30;56.10;;;;;;5118112;28;20481;-74
2022/07/11 02:57:25;;;;;;;5.63;3.17;;;17.20;56.00;;;;;;5118405;28;20500;-78
2022/07/11 02:59:52;;;;;;;3.57;3.27;;;17.10;55.90;;;;;;5119003;28;20478;-74
2022/07/11 03:02:19;;;;;;;3.60;3.30;;;17.10;55.90;;;;;;5117403;28;20473;-75
2022/07/11 03:04:46;;;;;;;3.10;2.90;;;17.00;56.70;;;;;;5115343;28;20429;-76
2022/07/11 03:07:15;;;;;;;4.07;3.73;;;17.00;57.00;;;;;;5115694;28;20948;-75
2022/07/11 03:09:42;;;;;;;3.60;3.30;;;16.90;57.40;;;;;;5115692;28;20454;-77
2022/07/11 03:12:09;;;;;;;3.03;2.83;;;16.90;57.70;;;;;;5116501;28;20494;-78
2022/07/11 03:14:36;;;;;;;3.87;3.43;;;16.90;57.60;;;;;;5116732;28;20545;-77
2022/07/11 03:17:03;;;;;;;4.03;3.73;;;16.90;57.70;;;;;;5115409;28;20460;-77
2022/07/11 03:19:30;;;;;;;3.37;3.07;;;17.00;57.60;;;;;;5116051;28;20447;-78
2022/07/11 03:21:56;;;;;;;4.50;3.17;;;17.00;57.10;;;;;;5115172;28;20491;-77
2022/07/11 03:24:25;;;;;;;3.20;3.00;;;17.00;57.70;;;;;;5116607;28;20501;-77
2022/07/11 03:26:51;;;;;;;3.03;2.80;;;17.00;57.30;;;;;;5121694;28;20446;-76
2022/07/11 03:29:18;;;;;;;3.90;3.33;;;17.00;57.20;;;;;;5163598;22;20490;-81
2022/07/11 03:31:46;;;;;;;4.00;3.57;;;17.00;57.50;;;;;;5122932;28;20517;-82
2022/07/11 03:34:13;;;;;;;3.57;3.03;;;16.90;58.00;;;;;;5123424;28;20457;-82
2022/07/11 03:36:39;;;;;;;3.90;3.50;;;16.90;58.10;;;;;;5122741;28;20446;-82
2022/07/11 03:39:06;;;;;;;3.67;3.30;;;16.90;58.20;;;;;;5121898;28;20535;-82
2022/07/11 03:41:35;;;;;;;3.77;3.47;;;16.90;58.40;;;;;;5125310;27;20462;-82
2022/07/11 03:44:02;;;;;;;3.93;3.50;;;16.90;58.50;;;;;;5124333;27;20451;-82
2022/07/11 03:46:29;;;;;;;3.67;3.37;;;16.90;58.30;;;;;;5122190;27;20457;-82
2022/07/11 03:48:56;;;;;;;5.10;3.30;;;17.00;58.30;;;;;;5147904;27;20842;-81
2022/07/11 03:51:22;;;;;;;4.07;3.20;;;17.10;57.50;;;;;;5133695;27;20458;-82
2022/07/11 03:53:49;;;;;;;2.97;2.77;;;17.10;57.10;;;;;;5130766;27;20518;-82
2022/07/11 03:56:20;;;;;;;3.00;2.80;;;17.20;56.60;;;;;;5130431;28;20481;-81
2022/07/11 03:58:48;;;;;;;3.33;3.10;;;17.30;56.10;;;;;;5135185;27;20478;-82
2022/07/11 04:01:15;;;;;;;5.10;3.13;;;17.40;56.20;;;;;;5130229;28;20438;-82
2022/07/11 04:03:42;;;;;;;3.60;3.20;;;17.30;56.10;;;;;;5128625;27;20434;-82
2022/07/11 04:06:09;;;;;;;6.70;3.50;;;17.20;56.00;;;;;;5149393;27;20457;-82
2022/07/11 04:08:36;;;;;;;4.10;3.80;;;17.30;56.10;;;;;;5141628;27;20978;-83
2022/07/11 04:11:03;;;;;;;3.77;3.33;;;17.30;56.10;;;;;;5129051;27;20498;-82
2022/07/11 04:13:31;;;;;;;3.20;2.83;;;17.30;56.10;;;;;;5123054;28;20442;-83
2022/07/11 04:15:59;;;;;;;3.37;3.07;;;17.40;56.20;;;;;;5124027;27;20458;-83
2022/07/11 04:18:26;;;;;;;3.60;2.90;;;17.50;56.30;;;;;;5114309;28;20482;-82
2022/07/11 04:20:53;;;;;;;3.87;3.23;;;17.50;56.20;;;;;;5117322;27;20458;-83
2022/07/11 04:23:21;;;;;;;3.23;3.03;;;17.60;55.60;;;;;;5138934;28;20436;-83
2022/07/11 04:25:48;;;;;;;3.10;2.90;;;17.60;56.30;;;;;;5138519;28;20421;-82
2022/07/11 04:28:15;;;;;;;3.87;3.20;;;17.70;55.30;;;;;;5139176;27;20478;-85
2022/07/11 04:30:42;;;;;;;3.90;3.60;;;17.80;53.70;;;;;;5137930;28;20498;-85
2022/07/11 04:33:10;;;;;;;6.57;3.00;;;17.90;53.70;;;;;;5135711;28;20446;-85
2022/07/11 04:35:40;;;;;;;3.03;2.83;;;18.00;53.40;;;;;;5123113;28;20462;-84
2022/07/11 04:38:07;;;;;;;3.10;2.90;;;18.20;52.70;;;;;;5121765;28;20468;-84
2022/07/11 04:40:34;;;;;;;3.40;3.20;;;18.20;52.90;;;;;;5120079;28;20428;-84
2022/07/11 04:43:01;;;;;;;3.50;3.20;;;18.30;52.20;;;;;;5120948;28;20495;-84
2022/07/11 04:45:28;;;;;;;3.33;3.03;;;18.40;51.90;;;;;;5120852;28;20522;-84
2022/07/11 04:47:56;;;;;;;3.47;3.23;;;18.60;51.00;;;;;;5122023;28;20470;-84
2022/07/11 04:50:25;;;;;;;2.87;2.67;;;18.70;50.60;;;;;;5124485;28;20435;-87
2022/07/11 04:52:52;;;;;;;4.40;3.20;;;18.80;50.20;;;;;;5138188;28;20397;-87
2022/07/11 04:55:19;;;;;;;4.53;3.17;;;19.00;49.40;;;;;;5137687;28;20513;-87
2022/07/11 04:57:46;;;;;;;4.17;3.30;;;19.00;49.00;;;;;;5138138;28;20478;-83
2022/07/11 05:00:13;;;;;;;3.40;3.03;;;19.00;48.70;;;;;;5138417;28;20454;-84
2022/07/11 05:02:40;;;;;;;4.20;3.23;;;19.10;48.10;;;;;;5138478;28;20397;-85
2022/07/11 05:05:08;;;;;;;3.17;2.87;;;19.30;48.20;;;;;;5138464;28;20414;-84
2022/07/11 05:07:36;;;;;;;4.20;3.70;;;19.40;48.30;;;;;;5137459;28;20525;-84
2022/07/11 05:10:03;;;;;;;4.30;3.80;;;19.50;48.40;;;;;;5137955;28;20413;-83
2022/07/11 05:12:30;;;;;;;6.80;3.00;;;19.50;48.40;;;;;;5138122;28;20509;-85
2022/07/11 05:14:58;;;;;;;6.37;3.67;;;19.70;47.70;;;;;;5129833;28;20545;-83
2022/07/11 05:17:25;;;;;;;5.20;3.80;;;19.80;46.80;;;;;;5137243;28;20436;-83
2022/07/11 05:19:52;;;;;;;6.17;4.40;;;19.70;47.50;;;;;;5138536;28;20454;-83
2022/07/11 05:22:19;;;;;;;4.20;3.37;;;19.70;47.60;;;;;;5131463;28;20439;-86
2022/07/11 05:24:47;;;;;;;3.97;3.63;;;19.70;46.80;;;;;;5120247;28;20421;-85
2022/07/11 05:27:14;;;;;;;3.73;3.43;;;19.60;47.90;;;;;;5125393;28;20478;-86
2022/07/11 05:29:41;;;;;;;4.57;3.87;;;19.80;47.60;;;;;;5132273;28;20510;-86
2022/07/11 05:32:11;;;;;;;3.53;3.23;;;19.70;48.10;;;;;;5134560;28;20530;-88
2022/07/11 05:34:39;;;;;;;4.17;3.60;;;19.90;47.30;;;;;;5127763;28;20451;-88
2022/07/11 05:37:06;;;;;;;4.40;3.50;;;19.90;47.00;;;;;;5126887;28;20409;-88
2022/07/11 05:39:34;;;;;;;3.80;3.43;;;20.10;46.30;;;;;;5134037;28;20517;-85
2022/07/11 05:42:02;;;;;;;5.93;4.10;;;20.20;45.60;;;;;;5130719;28;20522;-85
2022/07/11 05:44:29;;;;;;;3.93;3.60;;;20.20;45.90;;;;;;5129395;28;20458;-85
2022/07/11 05:47:01;;;;;;;4.13;3.73;;;20.30;45.80;;;;;;5137949;28;20461;-85
2022/07/11 05:49:28;;;;;;;4.43;4.03;;;20.50;44.70;;;;;;5138962;28;20481;-84
2022/07/11 05:51:56;;;;;;;4.90;4.17;;;20.50;45.10;;;;;;5130054;28;20497;-84
2022/07/11 05:54:23;;;;;;;4.60;3.73;;;20.60;44.80;;;;;;5128467;28;20545;-85
2022/07/11 05:56:50;;;;;;;4.33;4.00;;;20.70;44.80;;;;;;5124167;28;20568;-84
2022/07/11 05:59:18;;;;;;;4.27;3.87;;;21.00;43.90;;;;;;5124475;28;20510;-84
2022/07/11 06:01:46;;;;;;;4.10;3.80;;;21.00;43.40;;;;;;5123651;28;20460;-86
2022/07/11 06:04:13;;;;;;;6.00;4.17;;;20.90;43.70;;;;;;5126179;28;20937;-87
2022/07/11 06:06:41;;;;;;;4.87;3.90;;;21.10;43.30;;;;;;5125853;28;20434;-86
2022/07/11 06:09:07;;;;;;;4.70;3.70;;;21.50;41.90;;;;;;5126243;28;20446;-86
2022/07/11 06:11:34;;;;;;;5.10;4.60;;;21.70;40.40;;;;;;5126084;28;20918;-84
2022/07/11 06:14:01;;;;;;;7.17;4.50;;;21.80;40.50;;;;;;5135124;28;20518;-85
2022/07/11 06:16:29;;;;;;;5.70;3.87;;;21.70;40.40;;;;;;5128397;28;20415;-86
2022/07/11 06:18:56;;;;;;;7.00;3.80;;;22.20;40.60;;;;;;5126549;28;20513;-85
2022/07/11 06:21:23;;;;;;;4.20;3.90;;;21.00;42.60;;;;;;5125814;28;20448;-87
2022/07/11 06:23:50;;;;;;;6.43;4.00;;;20.80;43.10;;;;;;5124958;28;20450;-86
2022/07/11 06:26:17;;;;;;;5.90;3.87;;;20.90;42.80;;;;;;5123072;28;20505;-86
2022/07/11 06:28:44;;;;;;;7.00;4.30;;;21.20;42.30;;;;;;5123658;28;20476;-86
2022/07/11 06:31:11;;;;;;;4.47;4.03;;;22.10;40.80;;;;;;5123399;28;20466;-85
2022/07/11 06:33:40;;;;;;;7.60;4.97;;;22.70;38.90;;;;;;5133317;28;20810;-85
2022/07/11 06:36:07;;;;;;;4.07;3.70;;;22.10;40.80;;;;;;5133990;28;20488;-85
2022/07/11 06:38:35;;;;;;;3.77;3.47;;;22.50;39.10;;;;;;5135333;28;20485;-84
2022/07/11 06:41:02;;;;;;;4.00;3.50;;;22.90;38.10;;;;;;5130597;28;20879;-85
2022/07/11 06:43:32;;;;;;;5.30;3.20;;;23.20;37.60;;;;;;5128149;28;20515;-85
2022/07/11 06:45:59;;;;;;;3.37;3.10;;;22.40;39.00;;;;;;5127739;28;20551;-86
2022/07/11 06:48:27;;;;;;;4.33;3.53;;;22.30;39.20;;;;;;5127877;28;20986;-85
2022/07/11 06:50:55;;;;;;;3.50;3.20;;;21.40;40.60;;;;;;5128279;28;20430;-83
2022/07/11 06:53:22;;;;;;;7.53;3.30;;;21.50;40.30;;;;;;5134437;28;20557;-84
2022/07/11 06:55:49;;;;;;;5.07;3.87;;;20.70;42.60;;;;;;5128199;28;20473;-85
2022/07/11 06:58:31;;;;;;;5.43;3.67;;;20.70;43.10;;;;;;5127551;28;20443;-86
2022/07/11 07:00:59;;;;;;;3.80;3.50;;;20.90;42.70;;;;;;5127667;28;20536;-85
2022/07/11 07:03:27;;;;;;;4.77;3.90;;;21.10;41.80;;;;;;5126928;28;20429;-86
2022/07/11 07:05:56;;;;;;;3.40;3.10;;;21.00;42.20;;;;;;5124898;28;20453;-86
2022/07/11 07:08:24;;;;;;;4.73;4.07;;;21.10;42.00;;;;;;5131147;28;20504;-87
2022/07/11 07:10:51;;;;;;;3.27;2.97;;;20.90;42.80;;;;;;5131523;28;20503;-86
2022/07/11 07:13:18;;;;;;;3.70;3.20;;;21.60;41.10;;;;;;5139459;28;20423;-85
2022/07/11 07:15:48;;;;;;;3.80;3.20;;;22.00;40.70;;;;;;5132549;28;20457;-86
2022/07/11 07:18:15;;;;;;;4.07;3.67;;;21.80;40.50;;;;;;5127280;28;20453;-86
2022/07/11 07:20:42;;;;;;;4.50;3.60;;;20.90;42.40;;;;;;5128064;28;20481;-85
2022/07/11 07:23:11;;;;;;;4.17;3.77;;;20.70;43.10;;;;;;5125336;28;20482;-85
2022/07/11 07:25:38;;;;;;;4.50;3.20;;;20.70;43.10;;;;;;5126989;28;20743;-84
2022/07/11 07:28:05;;;;;;;3.23;2.90;;;21.10;41.60;;;;;;5126614;28;20482;-85
2022/07/11 07:30:33;;;;;;;3.70;3.33;;;21.30;40.20;;;;;;5129920;28;20467;-86
2022/07/11 07:33:00;;;;;;;4.77;3.80;;;20.90;42.00;;;;;;5132975;28;20433;-85
2022/07/11 07:35:27;;;;;;;4.80;3.70;;;20.60;42.90;;;;;;5129579;28;20460;-87
2022/07/11 07:37:54;;;;;;;6.83;3.90;;;20.50;42.70;;;;;;5125708;28;20565;-84
2022/07/11 07:40:22;;;;;;;5.10;4.00;;;20.80;42.20;;;;;;5125491;28;20512;-84
2022/07/11 07:42:49;;;;;;;4.87;3.40;;;21.10;41.40;;;;;;5126120;28;20493;-84
2022/07/11 07:45:16;;;;;;;4.60;3.37;;;21.20;40.80;;;;;;5127314;28;20832;-84
2022/07/11 07:47:43;;;;;;;4.70;3.20;;;21.30;41.10;;;;;;5127875;28;20471;-86
2022/07/11 07:50:11;;;;;;;2.93;2.63;;;21.50;40.20;;;;;;5127229;28;20425;-85
2022/07/11 07:52:38;;;;;;;3.03;2.80;;;21.70;40.40;;;;;;5128550;28;20515;-86
2022/07/11 07:55:07;;;;;;;4.17;2.90;;;21.60;40.30;;;;;;5130031;28;20440;-85
2022/07/11 07:57:36;;;;;;;3.17;2.90;;;21.20;40.90;;;;;;5130560;28;20437;-84
2022/07/11 08:03:06;;;;;;;5.60;3.90;;;21.50;41.10;;;;;;5072554;28;20615;-86
2022/07/11 08:05:33;;;;;;;3.70;2.90;;;21.70;40.40;;;;;;5071270;28;20467;-85
2022/07/11 08:08:00;;;;;;;3.33;3.03;;;21.90;40.60;;;;;;5099166;28;20455;-84
2022/07/11 08:10:27;;;;;;;3.43;3.17;;;21.70;40.40;;;;;;5135195;28;20481;-85
2022/07/11 08:12:56;;;;;;;5.90;3.80;;;21.70;40.40;;;;;;5135572;28;20481;-85
2022/07/11 08:15:23;;;;;;;4.90;3.30;;;21.50;40.20;;;;;;5132495;28;20516;-85
2022/07/11 08:17:50;;;;;;;3.53;3.17;;;21.80;40.50;;;;;;5131390;28;20463;-84
2022/07/11 08:20:19;;;;;;;5.10;3.23;;;21.90;40.60;;;;;;5134975;28;20566;-85
2022/07/11 08:22:46;;;;;;;4.20;3.80;;;21.90;40.40;;;;;;5134074;28;20771;-84
2022/07/11 08:25:13;;;;;;;6.00;2.90;;;21.70;40.40;;;;;;5130466;28;20505;-87
2022/07/11 08:27:41;;;;;;;3.73;3.33;;;22.40;38.90;;;;;;5130042;28;20431;-86
2022/07/11 08:30:10;;;;;;;3.47;3.13;;;22.80;38.10;;;;;;5129595;28;20476;-84
2022/07/11 08:32:40;;;;;;;3.30;2.80;;;23.20;36.60;;;;;;5130302;28;20409;-85
2022/07/11 08:35:11;;;;;;;4.23;3.07;;;23.70;35.80;;;;;;5132966;28;20985;-87
2022/07/11 08:37:38;;;;;;;3.87;3.20;;;23.80;35.40;;;;;;5132127;28;20494;-86
2022/07/11 08:40:06;;;;;;;4.50;3.33;;;23.90;34.90;;;;;;5129806;28;20480;-85
2022/07/11 08:42:43;;;;;;;3.53;3.20;;;23.40;36.10;;;;;;5131584;28;20446;-86
2022/07/11 08:45:14;;;;;;;3.30;3.00;;;22.90;37.80;;;;;;5131184;28;20447;-86
2022/07/11 08:47:41;;;;;;;3.40;3.20;;;22.90;37.60;;;;;;5135770;28;20404;-85
2022/07/11 08:50:10;;;;;;;3.80;3.50;;;23.00;37.60;;;;;;5137155;28;20472;-85
2022/07/11 08:52:38;;;;;;;4.57;3.60;;;22.80;38.20;;;;;;5137348;28;20503;-85
2022/07/11 08:55:08;;;;;;;3.70;3.40;;;22.60;37.90;;;;;;5133978;28;20439;-87
2022/07/11 08:57:36;;;;;;;4.07;3.37;;;22.50;38.30;;;;;;5135196;28;20456;-85
2022/07/11 09:00:06;;;;;;;3.80;3.40;;;22.70;38.00;;;;;;5136962;28;20480;-86
2022/07/11 09:02:35;;;;;;;3.73;3.03;;;22.90;36.90;;;;;;5135081;28;20439;-88
2022/07/11 09:05:05;;;;;;;3.73;3.33;;;22.90;37.10;;;;;;5132300;28;20535;-86
2022/07/11 09:07:32;;;;;;;2.77;2.57;;;23.00;36.70;;;;;;5132522;28;20546;-87
2022/07/11 09:09:59;;;;;;;3.37;3.07;;;23.10;36.70;;;;;;5134196;28;20407;-87
2022/07/11 09:12:26;;;;;;;3.63;3.33;;;23.40;35.90;;;;;;5135047;28;20447;-88
2022/07/11 09:14:53;;;;;;;3.07;2.70;;;23.70;35.40;;;;;;5135761;28;20477;-87
2022/07/11 09:17:26;;;;;;;3.00;2.70;;;23.90;34.70;;;;;;5133008;28;20453;-87
2022/07/11 09:19:56;;;;;;;5.70;3.37;;;23.90;34.20;;;;;;5129307;28;20556;-87
2022/07/11 09:25:24;;;;;;;4.40;2.90;;;23.70;33.60;;;;;;5132472;28;20437;-88
2022/07/11 09:30:26;;;;;;;4.50;2.97;;;23.80;33.50;;;;;;5104365;28;20463;-79
2022/07/11 09:32:55;;;;;;;3.53;2.50;;;24.10;32.80;;;;;;5109168;28;20478;-81
2022/07/11 09:35:25;;;;;;;2.97;2.77;;;24.50;31.70;;;;;;5106007;28;20485;-78
2022/07/11 09:37:52;;;;;;;3.37;3.07;;;24.80;30.30;;;;;;5105482;28;20545;-78
2022/07/11 09:40:21;;;;;;;4.10;2.80;;;25.20;30.30;;;;;;5103995;28;20473;-77
2022/07/11 09:42:50;;;;;;;3.13;2.80;;;24.80;31.40;;;;;;5102633;28;20464;-77
2022/07/11 09:45:18;;;;;;;4.20;2.90;;;24.40;32.60;;;;;;5101239;28;20501;-78
2022/07/11 09:47:46;;;;;;;2.53;2.33;;;24.60;32.80;;;;;;5106569;28;20430;-78
2022/07/11 09:50:13;;;;;;;3.73;2.60;;;25.10;30.00;;;;;;5107180;28;20458;-77
2022/07/11 09:52:58;;;;;;;4.00;2.50;;;25.00;30.20;;;;;;5107629;28;20487;-78
2022/07/11 09:55:26;;;;;;;4.53;3.10;;;24.90;30.90;;;;;;5103019;28;20873;-77
2022/07/11 09:57:53;;;;;;;2.90;2.70;;;24.40;32.60;;;;;;5102807;28;20437;-79
2022/07/11 10:00:20;;;;;;;3.30;3.00;;;24.30;32.50;;;;;;5101389;28;20972;-78
2022/07/11 10:02:49;;;;;;;2.80;2.60;;;23.80;32.90;;;;;;5098701;28;20984;-78
2022/07/11 10:05:15;;;;;;;5.20;3.20;;;24.30;32.50;;;;;;5100494;28;20522;-77
2022/07/11 10:07:44;;;;;;;2.80;2.60;;;24.80;32.90;;;;;;5106953;28;20414;-78
2022/07/11 10:10:11;;;;;;;3.00;2.80;;;25.50;30.50;;;;;;5106951;28;20534;-78
2022/07/11 10:12:38;;;;;;;3.93;2.80;;;25.70;30.00;;;;;;5100332;28;20487;-77
2022/07/11 10:15:08;;;;;;;3.13;2.93;;;25.70;30.00;;;;;;5098928;28;20964;-77
2022/07/11 10:17:45;;;;;;;3.27;2.97;;;25.10;31.10;;;;;;5098340;28;20470;-78
2022/07/11 10:20:21;;;;;;;2.63;2.50;;;24.50;32.50;;;;;;5096786;28;20448;-77
2022/07/11 10:22:56;;;;;;;2.90;2.50;;;23.90;32.10;;;;;;5097390;28;20869;-78
2022/07/11 10:25:29;;;;;;;2.17;2.07;;;24.00;32.20;;;;;;5100581;28;20862;-75
2022/07/11 10:28:07;;;;;;;2.47;2.27;;;23.90;32.10;;;;;;5112743;28;20417;-76
2022/07/11 10:30:48;;;;;;;2.67;2.47;;;24.00;32.20;;;;;;5118874;28;20417;-77
2022/07/11 10:33:16;;;;;;;3.03;2.40;;;24.80;30.60;;;;;;5117582;28;20500;-77
2022/07/11 10:35:44;;;;;;;4.67;2.60;;;24.90;30.40;;;;;;5112748;28;20422;-79
2022/07/11 10:38:14;;;;;;;2.40;2.00;;;25.20;28.90;;;;;;5118408;28;20504;-77
2022/07/11 10:40:46;;;;;;;2.73;2.40;;;25.60;28.70;;;;;;5116454;28;20508;-78
2022/07/11 10:43:14;;;;;;;4.60;2.40;;;25.80;28.40;;;;;;5108935;28;20846;-78
2022/07/11 10:45:55;;;;;;;2.83;2.50;;;26.00;28.60;;;;;;5110269;28;20611;-77
2022/07/11 10:48:22;;;;;;;2.60;1.90;;;25.90;28.50;;;;;;5108521;28;20481;-77
2022/07/11 10:50:55;;;;;;;2.83;2.30;;;25.80;28.30;;;;;;5107856;28;20458;-78
2022/07/11 10:53:23;;;;;;;2.50;2.30;;;25.90;28.30;;;;;;5106624;28;20436;-78
2022/07/11 10:56:06;;;;;;;2.70;2.50;;;26.10;27.90;;;;;;5107856;28;20515;-77
2022/07/11 10:58:35;;;;;;;2.60;2.40;;;26.30;27.90;;;;;;5102661;28;20472;-78
2022/07/11 11:01:10;;;;;;;2.17;1.97;;;25.70;29.00;;;;;;5099517;28;20503;-79
2022/07/11 11:03:37;;;;;;;3.37;2.37;;;25.70;28.60;;;;;;5101703;28;20443;-76
2022/07/11 11:06:04;;;;;;;2.20;2.03;;;25.90;27.80;;;;;;5099101;28;20426;-78
2022/07/11 11:08:48;;;;;;;1.90;1.80;;;25.30;28.60;;;;;;5096790;28;20494;-77
2022/07/11 11:11:40;;;;;;;2.20;1.70;;;25.20;29.20;;;;;;5103926;28;20445;-77
2022/07/11 11:14:26;;;;;;;2.13;1.43;;;25.30;29.10;;;;;;5102583;28;20467;-76
2022/07/11 11:16:53;;;;;;;4.27;2.07;;;26.00;28.10;;;;;;5097849;28;20418;-77
2022/07/11 11:19:52;;;;;;;2.40;1.70;;;26.50;27.80;;;;;;5109358;28;20459;-77
2022/07/11 11:22:20;;;;;;;3.77;1.80;;;26.30;27.60;;;;;;5099662;28;20430;-76
2022/07/11 11:24:51;;;;;;;2.10;1.90;;;25.50;29.00;;;;;;5097789;28;20449;-76
2022/07/11 11:27:21;;;;;;;2.63;2.07;;;25.50;28.70;;;;;;5098506;28;20505;-77
2022/07/11 11:29:52;;;;;;;4.20;1.83;;;25.40;29.20;;;;;;5098224;28;20534;-76
2022/07/11 11:32:22;;;;;;;2.13;1.90;;;25.30;29.00;;;;;;5098295;28;20479;-76
2022/07/11 11:34:49;;;;;;;2.00;1.80;;;25.40;29.40;;;;;;5096687;28;20455;-77
2022/07/11 11:37:18;;;;;;;2.70;2.00;;;25.40;28.90;;;;;;5096418;28;20434;-76
2022/07/11 11:39:46;;;;;;;1.80;1.70;;;25.50;28.70;;;;;;5095353;28;20465;-76
2022/07/11 11:42:17;;;;;;;2.60;2.40;;;24.60;30.90;;;;;;5096694;28;20550;-77
2022/07/11 11:44:56;;;;;;;3.30;2.27;;;24.90;30.90;;;;;;5096678;28;20534;-76
2022/07/11 11:47:24;;;;;;;1.83;1.73;;;24.80;30.20;;;;;;5096004;28;20950;-76
2022/07/11 11:49:51;;;;;;;2.63;2.33;;;24.50;31.20;;;;;;5096053;28;20463;-76
2022/07/11 11:52:19;;;;;;;3.03;1.93;;;25.30;30.20;;;;;;5095817;28;20812;-77
2022/07/11 11:54:55;;;;;;;3.43;1.90;;;26.40;28.20;;;;;;5095866;28;20498;-77
2022/07/11 11:57:25;;;;;;;5.37;2.03;;;26.50;27.60;;;;;;5096611;28;20477;-77
2022/07/11 11:59:52;;;;;;;1.90;1.80;;;26.10;28.00;;;;;;5100112;28;20487;-77
2022/07/11 12:02:24;;;;;;;2.50;2.10;;;25.50;29.30;;;;;;5102765;28;20911;-77
2022/07/11 12:04:51;;;;;;;2.10;1.90;;;25.10;30.30;;;;;;5099293;28;20430;-76
2022/07/11 12:07:27;;;;;;;3.43;1.90;;;25.80;29.00;;;;;;5097611;28;20423;-77
2022/07/11 12:09:56;;;;;;;4.67;2.00;;;25.90;28.70;;;;;;5103387;28;20961;-77
2022/07/11 12:12:45;;;;;;;2.73;2.10;;;26.00;29.00;;;;;;5107816;28;20454;-76
2022/07/11 12:15:27;;;;;;;2.37;2.10;;;26.40;28.40;;;;;;5114288;28;20442;-78
2022/07/11 12:17:59;;;;;;;9.90;2.30;;;26.70;27.90;;;;;;5113090;28;20509;-78
2022/07/11 12:20:40;;;;;;;2.50;1.50;;;26.70;26.90;;;;;;5111713;28;20459;-77
2022/07/11 12:23:09;;;;;;;4.10;1.50;;;26.30;27.90;;;;;;5110985;28;20433;-81
2022/07/11 12:25:37;;;;;;;2.83;1.90;;;26.30;28.30;;;;;;5108051;28;20431;-79
2022/07/11 12:28:07;;;;;;;8.03;2.53;;;26.70;27.80;;;;;;5104559;28;20435;-79
2022/07/11 12:30:35;;;;;;;3.87;2.40;;;26.90;27.40;;;;;;5104286;28;20443;-78
2022/07/11 12:33:06;;;;;;;2.17;1.90;;;26.20;28.50;;;;;;5102329;28;20467;-82
2022/07/11 12:35:33;;;;;;;2.03;1.63;;;26.10;28.80;;;;;;5101642;28;20463;-78
2022/07/11 12:37:59;;;;;;;2.00;1.90;;;26.60;27.70;;;;;;5102755;28;20459;-80
2022/07/11 12:40:26;;;;;;;2.60;1.90;;;26.80;27.40;;;;;;5102961;28;20552;-78
2022/07/11 12:42:53;;;;;;;2.40;2.00;;;25.80;28.30;;;;;;5104474;28;20541;-80
2022/07/11 12:45:21;;;;;;;3.80;1.70;;;25.60;29.10;;;;;;5105397;28;20427;-83
2022/07/11 12:47:49;;;;;;;2.10;1.63;;;25.50;29.20;;;;;;5106488;28;20462;-79
2022/07/11 12:50:18;;;;;;;5.13;2.33;;;25.90;28.90;;;;;;5108807;28;20444;-78
2022/07/11 12:52:47;;;;;;;3.10;2.17;;;25.90;28.90;;;;;;5111067;28;20415;-77
2022/07/11 12:55:22;;;;;;;3.23;1.80;;;26.10;28.60;;;;;;5115738;28;20402;-76
2022/07/11 12:58:06;;;;;;;2.20;2.00;;;26.40;27.80;;;;;;5116213;28;20474;-76
2022/07/11 13:00:36;;;;;;;3.07;1.83;;;26.40;27.40;;;;;;5114377;28;20443;-76
2022/07/11 13:03:03;;;;;;;2.97;1.47;;;26.50;27.30;;;;;;5115232;28;20452;-77
2022/07/11 13:05:31;;;;;;;1.87;1.40;;;26.30;27.10;;;;;;5114506;28;20453;-76